createdAt,value
2022-10-13T00:01:24.606Z,101462.75
2022-10-13T00:03:52.545Z,101449.78
2022-10-13T00:06:24.327Z,101448.34
2022-10-13T00:08:52.479Z,101468.91
2022-10-13T00:11:26.793Z,101475.78
2022-10-13T00:14:00.132Z,101460.53
2022-10-13T00:16:29.504Z,101468.78
2022-10-13T00:18:58.671Z,101468.91
2022-10-13T00:21:28.178Z,101480.13
2022-10-13T00:24:03.197Z,101473.19
2022-10-13T00:26:31.117Z,101483.69
2022-10-13T00:28:59.176Z,101494.97
2022-10-13T00:31:32.241Z,101495.94
2022-10-13T00:34:01.703Z,101489.91
2022-10-13T00:36:30.611Z,101488.94
2022-10-13T00:38:59.975Z,101487.19
2022-10-13T00:41:28.106Z,101481.31
2022-10-13T00:44:04.358Z,101505.28
2022-10-13T00:46:34.783Z,101469.44
2022-10-13T00:49:10.468Z,101506.00
2022-10-13T00:51:45.781Z,101498.22
2022-10-13T00:54:24.779Z,101498.22
2022-10-13T00:56:55.650Z,101511.16
2022-10-13T00:59:29.686Z,101505.13
2022-10-13T01:02:00.425Z,101505.13
2022-10-13T01:04:41.292Z,101508.56
2022-10-13T01:07:10.125Z,101511.13
2022-10-13T01:09:38.627Z,101510.31
2022-10-13T01:12:54.868Z,101516.34
2022-10-13T01:15:33.603Z,101515.41
2022-10-13T01:18:14.276Z,101519.75
2022-10-13T01:20:57.549Z,101516.25
2022-10-13T01:23:35.268Z,101520.53
2022-10-13T01:26:03.138Z,101524.78
2022-10-13T01:29:01.315Z,101523.91
2022-10-13T01:31:40.579Z,101512.63
2022-10-13T01:34:16.296Z,101515.16
2022-10-13T01:37:10.828Z,101523.81
2022-10-13T01:40:00.198Z,101518.63
2022-10-13T01:42:39.789Z,101525.50
2022-10-13T01:45:14.205Z,101528.09
2022-10-13T01:47:44.094Z,101522.00
2022-10-13T01:50:12.918Z,101523.69
2022-10-13T01:52:44.415Z,101532.19
2022-10-13T01:55:14.081Z,101525.97
2022-10-13T01:57:44.850Z,101530.22
2022-10-13T02:00:18.482Z,101528.28
2022-10-13T02:02:52.554Z,101530.81
2022-10-13T02:05:26.799Z,101537.66
2022-10-13T02:11:02.646Z,101523.94
2022-10-13T02:13:33.861Z,101537.47
2022-10-13T02:16:02.632Z,101551.34
2022-10-13T02:18:34.384Z,101551.53
2022-10-13T02:21:04.382Z,101570.13
2022-10-13T02:23:32.646Z,101554.25
2022-10-13T02:26:05.303Z,101565.22
2022-10-13T02:28:33.457Z,101568.41
2022-10-13T02:31:01.414Z,101569.06
2022-10-13T02:33:30.545Z,101577.59
2022-10-13T02:35:58.586Z,101563.03
2022-10-13T02:38:26.561Z,101585.06
2022-10-13T02:40:55.957Z,101583.25
2022-10-13T02:43:23.907Z,101587.50
2022-10-13T02:45:52.059Z,101578.06
2022-10-13T02:48:20.196Z,101587.25
2022-10-13T02:50:48.416Z,101583.69
2022-10-13T02:53:16.426Z,101592.31
2022-10-13T02:55:46.148Z,101590.50
2022-10-13T02:58:13.860Z,101587.84
2022-10-13T03:00:42.755Z,101594.59
2022-10-13T03:03:14.193Z,101589.31
2022-10-13T03:05:42.171Z,101595.34
2022-10-13T03:08:10.190Z,101595.09
2022-10-13T03:10:38.629Z,101590.94
2022-10-13T03:13:06.592Z,101603.50
2022-10-13T03:15:34.544Z,101613.69
2022-10-13T03:18:03.556Z,101603.97
2022-10-13T03:20:31.650Z,101605.66
2022-10-13T03:22:59.560Z,101608.91
2022-10-13T03:25:28.661Z,101599.22
2022-10-13T03:27:57.198Z,101608.66
2022-10-13T03:30:25.516Z,101614.69
2022-10-13T03:32:54.093Z,101607.66
2022-10-13T03:35:22.182Z,101599.34
2022-10-13T03:38:05.391Z,101620.59
2022-10-13T03:40:35.122Z,101614.44
2022-10-13T03:43:02.788Z,101614.31
2022-10-13T03:45:31.913Z,101621.13
2022-10-13T03:48:01.295Z,101604.75
2022-10-13T03:50:29.275Z,101625.19
2022-10-13T03:52:57.217Z,101613.94
2022-10-13T03:55:27.189Z,101620.50
2022-10-13T03:57:55.190Z,101626.50
2022-10-13T04:00:24.129Z,101625.44
2022-10-13T04:02:53.912Z,101632.28
2022-10-13T04:05:21.850Z,101626.94
2022-10-13T04:07:49.775Z,101623.41
2022-10-13T04:10:18.155Z,101631.03
2022-10-13T04:12:46.104Z,101616.13
2022-10-13T04:15:14.105Z,101618.38
2022-10-13T04:17:43.185Z,101612.41
2022-10-13T04:20:11.796Z,101612.00
2022-10-13T04:22:40.103Z,101615.19
2022-10-13T04:25:09.643Z,101613.22
2022-10-13T04:27:39.952Z,101605.22
2022-10-13T04:30:09.474Z,101609.28
2022-10-13T04:32:41.094Z,101614.44
2022-10-13T04:35:09.227Z,101615.00
2022-10-13T04:37:40.495Z,101615.84
2022-10-13T04:40:11.503Z,101615.84
2022-10-13T04:42:39.570Z,101627.81
2022-10-13T04:45:08.247Z,101618.16
2022-10-13T04:47:54.941Z,101618.88
2022-10-13T04:50:23.417Z,101618.78
2022-10-13T04:52:51.431Z,101620.34
2022-10-13T04:55:20.410Z,101615.91
2022-10-13T04:57:49.600Z,101626.31
2022-10-13T05:00:17.978Z,101618.50
2022-10-13T05:02:46.250Z,101624.50
2022-10-13T05:05:15.347Z,101617.44
2022-10-13T05:07:43.394Z,101621.59
2022-10-13T05:10:11.487Z,101617.06
2022-10-13T05:12:39.467Z,101613.38
2022-10-13T05:15:07.985Z,101620.06
2022-10-13T05:17:36.081Z,101612.25
2022-10-13T05:20:04.967Z,101609.34
2022-10-13T05:22:33.059Z,101626.44
2022-10-13T05:25:02.266Z,101626.22
2022-10-13T05:27:31.344Z,101619.97
2022-10-13T05:29:59.362Z,101627.63
2022-10-13T05:32:28.322Z,101629.38
2022-10-13T05:34:56.316Z,101615.81
2022-10-13T05:37:24.327Z,101630.78
2022-10-13T05:39:53.151Z,101620.34
2022-10-13T05:42:21.321Z,101621.47
2022-10-13T05:44:49.601Z,101630.84
2022-10-13T05:47:17.774Z,101635.06
2022-10-13T05:49:45.834Z,101630.84
2022-10-13T05:52:14.065Z,101625.84
2022-10-13T05:54:49.332Z,101642.09
2022-10-13T05:57:23.438Z,101632.38
2022-10-13T06:00:14.529Z,101641.97
2022-10-13T06:03:08.132Z,101634.97
2022-10-13T06:05:37.595Z,101647.03
2022-10-13T06:08:05.828Z,101645.25
2022-10-13T06:10:33.845Z,101637.75
2022-10-13T06:13:01.910Z,101644.66
2022-10-13T06:15:29.925Z,101650.94
2022-10-13T06:17:58.029Z,101648.81
2022-10-13T06:20:30.131Z,101644.44
2022-10-13T06:22:58.340Z,101652.91
2022-10-13T06:25:26.455Z,101613.97
2022-10-13T06:27:54.556Z,101651.34
2022-10-13T06:30:22.621Z,101650.50
2022-10-13T06:32:50.569Z,101664.75
2022-10-13T06:35:20.988Z,101651.16
2022-10-13T06:37:49.348Z,101653.00
2022-10-13T06:40:18.019Z,101642.03
2022-10-13T06:42:51.734Z,101644.56
2022-10-13T06:45:22.461Z,101647.78
2022-10-13T06:47:50.481Z,101654.63
2022-10-13T06:50:20.341Z,101653.47
2022-10-13T06:52:47.982Z,101643.75
2022-10-13T06:55:16.121Z,101644.13
2022-10-13T06:57:44.699Z,101651.47
2022-10-13T07:00:13.078Z,101642.94
2022-10-13T07:02:40.988Z,101664.84
2022-10-13T07:05:10.274Z,101607.94
2022-10-13T07:07:38.505Z,101650.56
2022-10-13T07:10:06.848Z,101668.53
2022-10-13T07:12:36.191Z,101654.44
2022-10-13T07:15:04.430Z,101647.59
2022-10-13T07:17:32.448Z,101652.31
2022-10-13T07:20:05.036Z,101646.94
2022-10-13T07:22:35.396Z,101650.72
2022-10-13T07:25:06.007Z,101651.28
2022-10-13T07:27:34.130Z,101665.72
2022-10-13T07:30:02.181Z,101658.53
2022-10-13T07:32:32.854Z,101658.44
2022-10-13T07:35:00.829Z,101654.09
2022-10-13T07:37:28.934Z,101655.91
2022-10-13T07:39:56.986Z,101655.16
2022-10-13T07:42:24.980Z,101665.66
2022-10-13T07:44:53.000Z,101663.91
2022-10-13T07:47:22.895Z,101640.66
2022-10-13T07:49:51.232Z,101652.41
2022-10-13T07:52:38.006Z,101658.19
2022-10-13T07:55:06.504Z,101650.22
2022-10-13T07:57:34.575Z,101655.44
2022-10-13T08:00:02.837Z,101660.63
2022-10-13T08:02:31.839Z,101652.13
2022-10-13T08:04:59.773Z,101653.16
2022-10-13T08:07:29.632Z,101658.22
2022-10-13T08:09:59.602Z,101664.38
2022-10-13T08:12:27.548Z,101660.84
2022-10-13T08:14:57.724Z,101670.31
2022-10-13T08:17:27.649Z,101667.63
2022-10-13T08:19:56.934Z,101663.25
2022-10-13T08:22:28.220Z,101677.22
2022-10-13T08:24:56.662Z,101675.53
2022-10-13T08:27:32.790Z,101675.78
2022-10-13T08:30:12.830Z,101670.50
2022-10-13T08:32:41.735Z,101683.63
2022-10-13T08:37:56.503Z,101645.25
2022-10-13T08:40:24.738Z,101679.97
2022-10-13T08:42:55.566Z,101684.41
2022-10-13T08:45:41.211Z,101681.47
2022-10-13T08:48:19.155Z,101683.88
2022-10-13T08:50:51.652Z,101686.34
2022-10-13T08:53:29.720Z,101694.84
2022-10-13T08:56:06.505Z,101698.25
2022-10-13T08:58:36.911Z,101704.00
2022-10-13T09:01:09.703Z,101686.53
2022-10-13T09:04:00.381Z,101702.09
2022-10-13T09:06:42.103Z,101691.03
2022-10-13T09:09:13.249Z,101698.66
2022-10-13T09:11:44.060Z,101702.03
2022-10-13T09:14:20.965Z,101693.97
2022-10-13T09:16:50.522Z,101698.22
2022-10-13T09:19:18.408Z,101695.53
2022-10-13T09:21:46.461Z,101683.41
2022-10-13T09:24:22.179Z,101688.59
2022-10-13T09:27:02.987Z,101700.72
2022-10-13T09:29:31.974Z,101693.84
2022-10-13T09:36:15.198Z,101694.13
2022-10-13T09:39:05.646Z,101713.16
2022-10-13T09:41:35.300Z,101704.00
2022-10-13T09:44:18.562Z,101715.13
2022-10-13T09:46:55.422Z,101712.59
2022-10-13T09:49:27.816Z,101715.22
2022-10-13T09:52:13.456Z,101719.50
2022-10-13T09:54:45.635Z,101726.56
2022-10-13T09:57:20.066Z,101731.91
2022-10-13T10:00:16.647Z,101699.16
2022-10-13T10:02:50.079Z,101735.88
2022-10-13T10:05:28.454Z,101739.66
2022-10-13T10:08:05.351Z,101733.91
2022-10-13T10:10:37.016Z,101736.63
2022-10-13T10:13:05.075Z,101746.16
2022-10-13T10:16:02.560Z,101746.44
2022-10-13T10:18:58.930Z,101754.25
2022-10-13T10:21:45.620Z,101742.28
2022-10-13T10:24:34.950Z,101754.56
2022-10-13T10:27:12.429Z,101760.63
2022-10-13T10:29:47.353Z,101757.16
2022-10-13T10:32:46.141Z,101759.78
2022-10-13T10:35:21.775Z,101765.81
2022-10-13T10:37:55.899Z,101769.34
2022-10-13T10:40:23.940Z,101763.28
2022-10-13T10:43:08.183Z,101765.13
2022-10-13T10:45:39.943Z,101759.91
2022-10-13T10:48:30.519Z,101764.34
2022-10-13T10:50:58.744Z,101761.03
2022-10-13T10:53:41.050Z,101767.09
2022-10-13T10:56:15.086Z,101776.78
2022-10-13T10:59:08.223Z,101770.72
2022-10-13T11:01:57.465Z,101771.66
2022-10-13T11:04:47.253Z,101779.59
2022-10-13T11:07:44.280Z,101773.66
2022-10-13T11:10:15.825Z,101777.97
2022-10-13T11:12:52.613Z,101781.56
2022-10-13T11:15:58.179Z,101775.75
2022-10-13T11:18:59.944Z,101780.84
2022-10-13T11:21:48.071Z,101786.97
2022-10-13T11:24:34.588Z,101796.59
2022-10-13T11:27:19.235Z,101793.22
2022-10-13T11:29:47.504Z,101795.88
2022-10-13T11:32:42.132Z,101800.31
2022-10-13T11:35:12.927Z,101800.38
2022-10-13T11:38:09.904Z,101804.81
2022-10-13T11:41:00.239Z,101808.31
2022-10-13T11:43:56.445Z,101805.91
2022-10-13T11:46:27.624Z,101804.28
2022-10-13T11:48:58.472Z,101804.44
2022-10-13T11:51:38.708Z,101811.66
2022-10-13T11:54:24.925Z,101815.56
2022-10-13T11:56:56.072Z,101815.88
2022-10-13T11:59:34.491Z,101818.78
2022-10-13T12:02:11.368Z,101834.63
2022-10-13T12:04:45.673Z,101826.34
2022-10-13T12:07:16.820Z,101820.88
2022-10-13T12:09:50.459Z,101832.91
2022-10-13T12:12:21.169Z,101832.34
2022-10-13T12:14:55.334Z,101851.63
2022-10-13T12:17:36.416Z,101838.09
2022-10-13T12:20:26.089Z,101845.44
2022-10-13T12:22:54.846Z,101850.63
2022-10-13T12:25:30.382Z,101852.69
2022-10-13T12:28:03.968Z,101849.47
2022-10-13T12:30:38.277Z,101861.75
2022-10-13T12:33:23.708Z,101833.09
2022-10-13T12:35:51.864Z,101860.31
2022-10-13T12:38:21.897Z,101874.31
2022-10-13T12:40:52.699Z,101876.22
2022-10-13T12:43:27.025Z,101874.59
2022-10-13T12:45:55.447Z,101884.25
2022-10-13T12:48:38.888Z,101876.72
2022-10-13T12:51:24.327Z,101840.44
2022-10-13T12:53:52.465Z,101873.56
2022-10-13T12:56:30.204Z,101885.63
2022-10-13T12:59:00.175Z,101885.69
2022-10-13T13:01:37.057Z,101894.53
2022-10-13T13:04:19.032Z,101896.50
2022-10-13T13:07:01.928Z,101893.56
2022-10-13T13:09:31.491Z,101909.22
2022-10-13T13:12:19.219Z,101894.91
2022-10-13T13:14:50.242Z,101915.63
2022-10-13T13:17:33.017Z,101913.16
2022-10-13T13:20:27.790Z,101917.66
2022-10-13T13:22:56.790Z,101924.59
2022-10-13T13:25:25.364Z,101925.56
2022-10-13T13:27:54.962Z,101927.34
2022-10-13T13:30:25.395Z,101936.16
2022-10-13T13:32:53.498Z,101937.91
2022-10-13T13:35:21.874Z,101936.31
2022-10-13T13:37:52.909Z,101940.75
2022-10-13T13:40:26.942Z,101937.47
2022-10-13T13:42:55.516Z,101941.19
2022-10-13T13:45:27.418Z,101936.25
2022-10-13T13:48:00.326Z,101945.13
2022-10-13T13:50:34.553Z,101949.56
2022-10-13T13:53:02.673Z,101933.38
2022-10-13T13:55:31.456Z,101953.22
2022-10-13T13:57:59.554Z,101950.09
2022-10-13T14:00:27.651Z,101950.13
2022-10-13T14:02:58.326Z,101933.91
2022-10-13T14:05:26.351Z,101955.31
2022-10-13T14:07:57.554Z,101955.28
2022-10-13T14:10:27.453Z,101961.34
2022-10-13T14:12:55.514Z,101958.00
2022-10-13T14:15:27.178Z,101966.75
2022-10-13T14:17:58.188Z,101964.25
2022-10-13T14:20:26.268Z,101960.75
2022-10-13T14:22:54.374Z,101961.66
2022-10-13T14:25:22.460Z,101962.41
2022-10-13T14:27:50.631Z,101955.44
2022-10-13T14:30:18.786Z,101972.66
2022-10-13T14:32:47.633Z,101971.75
2022-10-13T14:35:15.661Z,101973.53
2022-10-13T14:37:43.686Z,101980.44
2022-10-13T14:40:11.928Z,101970.16
2022-10-13T14:42:40.245Z,101975.34
2022-10-13T14:45:09.023Z,101983.88
2022-10-13T14:47:37.873Z,101983.03
2022-10-13T14:50:06.395Z,101981.28
2022-10-13T14:52:34.672Z,101966.88
2022-10-13T14:55:06.057Z,101984.75
2022-10-13T14:57:34.260Z,101989.06
2022-10-13T15:00:02.479Z,101989.94
2022-10-13T15:02:34.232Z,101998.56
2022-10-13T15:05:02.044Z,101990.75
2022-10-13T15:07:31.737Z,101983.97
2022-10-13T15:10:07.876Z,102004.59
2022-10-13T15:12:36.030Z,102009.03
2022-10-13T15:15:07.946Z,102001.38
2022-10-13T15:17:37.490Z,102001.31
2022-10-13T15:20:07.133Z,102003.03
2022-10-13T15:22:36.165Z,102006.47
2022-10-13T15:25:08.579Z,102003.19
2022-10-13T15:27:41.632Z,102008.97
2022-10-13T15:30:11.422Z,102009.88
2022-10-13T15:32:39.570Z,102020.19
2022-10-13T15:35:08.096Z,102011.53
2022-10-13T15:37:36.422Z,102024.53
2022-10-13T15:40:04.678Z,102010.84
2022-10-13T15:42:32.669Z,102022.06
2022-10-13T15:45:09.954Z,102021.25
2022-10-13T15:47:38.810Z,102010.94
2022-10-13T15:50:07.404Z,102015.25
2022-10-13T15:52:42.042Z,102012.72
2022-10-13T15:55:14.834Z,102009.34
2022-10-13T15:57:43.054Z,102002.41
2022-10-13T16:00:13.548Z,102010.19
2022-10-13T16:02:42.893Z,102026.47
2022-10-13T16:05:13.786Z,102035.91
2022-10-13T16:07:42.563Z,102022.09
2022-10-13T16:10:13.401Z,102029.84
2022-10-13T16:12:46.837Z,102023.91
2022-10-13T16:15:18.797Z,102036.78
2022-10-13T16:17:46.904Z,102037.66
2022-10-13T16:20:15.158Z,102034.28
2022-10-13T16:22:44.040Z,102047.19
2022-10-13T16:25:12.090Z,102043.75
2022-10-13T16:27:44.053Z,102046.34
2022-10-13T16:30:16.017Z,102042.09
2022-10-13T16:32:43.972Z,102035.34
2022-10-13T16:35:12.352Z,102041.97
2022-10-13T16:37:42.303Z,102049.78
2022-10-13T16:40:10.841Z,102046.13
2022-10-13T16:42:38.999Z,102040.16
2022-10-13T16:45:07.820Z,102049.47
2022-10-13T16:47:35.811Z,102064.09
2022-10-13T16:50:10.054Z,102051.22
2022-10-13T16:52:39.594Z,102058.09
2022-10-13T16:55:08.249Z,102052.06
2022-10-13T16:57:36.339Z,102064.19
2022-10-13T17:00:06.749Z,102064.19
2022-10-13T17:02:36.374Z,102041.91
2022-10-13T17:05:04.528Z,102047.78
2022-10-13T17:07:35.122Z,102051.22
2022-10-13T17:11:03.590Z,102049.50
2022-10-13T17:13:35.196Z,102053.84
2022-10-13T17:16:04.390Z,102054.03
2022-10-13T17:18:32.410Z,102057.38
2022-10-13T17:21:02.986Z,102013.16
2022-10-13T17:23:31.622Z,102060.00
2022-10-13T17:26:06.757Z,102061.69
2022-10-13T17:28:36.970Z,102046.22
2022-10-13T17:31:07.646Z,102055.56
2022-10-13T17:33:39.940Z,102068.53
2022-10-13T17:36:13.224Z,102056.41
2022-10-13T17:38:41.768Z,102038.78
2022-10-13T17:41:11.941Z,102072.75
2022-10-13T17:43:41.831Z,102030.19
2022-10-13T17:46:38.227Z,102060.66
2022-10-13T17:49:10.110Z,102065.88
2022-10-13T17:51:39.152Z,102072.81
2022-10-13T17:54:12.958Z,102080.56
2022-10-13T17:56:43.815Z,102073.69
2022-10-13T17:59:12.284Z,102072.81
2022-10-13T18:01:42.623Z,102064.19
2022-10-13T18:04:13.921Z,102077.97
2022-10-13T18:06:47.296Z,102065.06
2022-10-13T18:09:24.801Z,102059.97
2022-10-13T18:11:56.251Z,102063.31
2022-10-13T18:14:25.435Z,102077.97
2022-10-13T18:16:54.001Z,102064.28
2022-10-13T18:19:22.556Z,102070.25
2022-10-13T18:21:50.967Z,102072.81
2022-10-13T18:24:19.649Z,102070.25
2022-10-13T18:26:50.015Z,102078.91
2022-10-13T18:29:18.123Z,102080.63
2022-10-13T18:31:46.256Z,102081.53
2022-10-13T18:34:18.266Z,102066.81
2022-10-13T18:36:52.903Z,102074.50
2022-10-13T18:39:24.288Z,102076.25
2022-10-13T18:41:54.104Z,102077.16
2022-10-13T18:44:23.741Z,102078.06
2022-10-13T18:46:52.266Z,102077.28
2022-10-13T18:49:31.568Z,102085.19
2022-10-13T18:52:02.180Z,102068.91
2022-10-13T18:54:30.893Z,102061.34
2022-10-13T18:57:03.301Z,102079.31
2022-10-13T18:59:31.495Z,102080.28
2022-10-13T19:02:01.555Z,102081.94
2022-10-13T19:04:29.797Z,102090.53
2022-10-13T19:06:57.790Z,102087.13
2022-10-13T19:09:27.129Z,102082.78
2022-10-13T19:11:58.032Z,102092.41
2022-10-13T19:14:26.996Z,102094.22
2022-10-13T19:16:59.404Z,102094.22
2022-10-13T19:19:31.952Z,102096.00
2022-10-13T19:21:59.900Z,102090.91
2022-10-13T19:24:28.025Z,102092.75
2022-10-13T19:26:56.898Z,102086.06
2022-10-13T19:29:24.894Z,102074.13
2022-10-13T19:31:52.997Z,102092.97
2022-10-13T19:34:21.243Z,102096.47
2022-10-13T19:36:49.796Z,102095.69
2022-10-13T19:39:27.631Z,102102.66
2022-10-13T19:41:57.467Z,102108.72
2022-10-13T19:44:25.992Z,102095.84
2022-10-13T19:46:57.040Z,102089.91
2022-10-13T19:49:28.137Z,102107.28
2022-10-13T19:51:56.892Z,102090.34
2022-10-13T19:54:30.186Z,102098.97
2022-10-13T19:57:01.202Z,102093.13
2022-10-13T19:59:29.573Z,102111.94
2022-10-13T20:01:58.324Z,102118.00
2022-10-13T20:04:26.972Z,102106.81
2022-10-13T20:06:55.199Z,102106.88
2022-10-13T20:09:26.109Z,102096.78
2022-10-13T20:11:54.260Z,102118.25
2022-10-13T20:14:22.750Z,102119.28
2022-10-13T20:16:52.577Z,102128.75
2022-10-13T20:19:20.762Z,102121.06
2022-10-13T20:21:52.097Z,102114.38
2022-10-13T20:24:25.390Z,102125.44
2022-10-13T20:26:53.551Z,102116.97
2022-10-13T20:29:21.607Z,102098.28
2022-10-13T20:31:49.778Z,102134.22
2022-10-13T20:34:17.905Z,102129.97
2022-10-13T20:36:45.872Z,102107.84
2022-10-13T20:39:14.805Z,102133.66
2022-10-13T20:41:42.916Z,102138.84
2022-10-13T20:44:11.674Z,102135.47
2022-10-13T20:46:40.102Z,102129.56
2022-10-13T20:49:12.571Z,102152.84
2022-10-13T20:51:42.519Z,102151.13
2022-10-13T20:54:12.271Z,102147.69
2022-10-13T20:56:39.936Z,102151.09
2022-10-13T20:59:11.146Z,102155.47
2022-10-13T21:01:42.145Z,102153.72
2022-10-13T21:04:10.179Z,102166.63
2022-10-13T21:06:38.813Z,102157.13
2022-10-13T21:09:08.192Z,102164.88
2022-10-13T21:11:36.769Z,102163.09
2022-10-13T21:14:07.447Z,102168.25
2022-10-13T21:16:36.515Z,102169.09
2022-10-13T21:19:05.507Z,102170.78
2022-10-13T21:21:36.414Z,102168.25
2022-10-13T21:24:07.027Z,102173.34
2022-10-13T21:26:36.517Z,102182.78
2022-10-13T21:29:04.934Z,102170.84
2022-10-13T21:31:33.048Z,102177.66
2022-10-13T21:34:01.720Z,102174.97
2022-10-13T21:36:32.073Z,102174.97
2022-10-13T21:39:05.365Z,102168.03
2022-10-13T21:41:33.478Z,102182.72
2022-10-13T21:44:01.491Z,102159.44
2022-10-13T21:46:32.880Z,102181.84
2022-10-13T21:49:04.421Z,102185.31
2022-10-13T21:51:36.558Z,102176.66
2022-10-13T21:54:10.375Z,102185.28
2022-10-13T21:56:40.157Z,102186.97
2022-10-13T21:59:12.114Z,102180.06
2022-10-13T22:01:40.368Z,102199.81
2022-10-13T22:04:08.555Z,102188.63
2022-10-13T22:06:36.779Z,102175.66
2022-10-13T22:09:06.391Z,102185.94
2022-10-13T22:11:35.124Z,102200.56
2022-10-13T22:14:03.202Z,102180.84
2022-10-13T22:16:34.992Z,102198.84
2022-10-13T22:19:02.938Z,102192.81
2022-10-13T22:21:34.738Z,102203.16
2022-10-13T22:24:06.089Z,102193.66
2022-10-13T22:26:37.479Z,102194.53
2022-10-13T22:29:07.139Z,102203.16
2022-10-13T22:31:35.462Z,102204.81
2022-10-13T22:34:03.964Z,102163.94
2022-10-13T22:36:32.427Z,102214.47
2022-10-13T22:39:03.326Z,102205.88
2022-10-13T22:41:33.553Z,102210.22
2022-10-13T22:44:02.772Z,102213.75
2022-10-13T22:46:35.267Z,102212.88
2022-10-13T22:49:04.257Z,102216.34
2022-10-13T22:51:34.650Z,102218.03
2022-10-13T22:54:03.576Z,102218.91
2022-10-13T22:56:34.012Z,102219.78
2022-10-13T22:59:07.637Z,102226.69
2022-10-13T23:01:36.387Z,102224.13
2022-10-13T23:04:06.065Z,102227.50
2022-10-13T23:06:36.880Z,102236.13
2022-10-13T23:09:07.763Z,102236.97
2022-10-13T23:12:00.630Z,102230.97
2022-10-13T23:14:28.758Z,102239.59
2022-10-13T23:16:56.770Z,102237.88
2022-10-13T23:19:26.250Z,102230.16
2022-10-13T23:21:54.105Z,102237.97
2022-10-13T23:24:22.253Z,102244.84
2022-10-13T23:26:50.389Z,102243.09
2022-10-13T23:29:18.324Z,102250.84
2022-10-13T23:31:46.340Z,102245.69
2022-10-13T23:34:14.467Z,102254.34
2022-10-13T23:36:42.439Z,102257.00
2022-10-13T23:39:11.525Z,102257.03
2022-10-13T23:41:40.616Z,102257.91
2022-10-13T23:44:09.073Z,102253.72
2022-10-13T23:46:37.204Z,102257.09
2022-10-13T23:49:05.296Z,102257.19
2022-10-13T23:51:33.338Z,102265.84
2022-10-13T23:54:01.515Z,102265.84
2022-10-13T23:56:30.802Z,102263.19
2022-10-13T23:58:58.903Z,102269.16
